Zeynalabdin Tagiyev — 9HLD8 — position and weather

sailwx.info

Track history (hours):
 
Tides and Currents Weather Stations Pressure Air Temp Water Temp Dewpoint Dewpoint Depression Visibility Wind Speed Wind Dir Waves Ship Positions

Zeynalabdin Tagiyev

Last reported at 2017-May-28 19:53 UTC. Time now 2017-May-29 03:59 UTC.
Position N 37°16' E 008°19'.

Length 140 m; draft 4.6 m.

Type: Cargo ship. MMSI: 256107000.

Date/timePositionNaut miles runAvg speedWind from/ knotsBaromVisibWave heightAir tempDewpointWater temp
2017-May-28 19:53N 37°16' E 008°19'4 9.4
2017-May-28 19:30N 37°16' E 008°24'5 9.4
2017-May-28 19:00N 37°16' E 008°29'5 9.4
2017-May-28 18:30N 37°16' E 008°35'5 9.5
2017-May-28 18:01N 37°17' E 008°41'5 9.7
2017-May-28 17:30N 37°18' E 008°47'7 9.2
2017-May-28 16:41N 37°19' E 008°56'2 9.7
2017-May-28 16:30N 37°20' E 008°59'5 9.8
2017-May-28 16:00N 37°21' E 009°05'5 9.8
2017-May-28 15:30N 37°22' E 009°11'5 9.7
2017-May-28 14:59N 37°23' E 009°17'10 9.5
2017-May-28 13:59N 37°25' E 009°28'64 8.2
2017-May-28 06:11N 37°31' E 010°49'1 8.9
2017-May-28 06:01N 37°30' E 010°50'105 8.5
2017-May-27 17:39N 36°53' E 012°54'1 8.4
2017-May-27 17:31N 36°53' E 012°55'5 8.4
2017-May-27 16:52N 36°51' E 013°02'3 8.1
2017-May-27 16:30N 36°50' E 013°05'5 8.1
2017-May-27 15:50N 36°48' E 013°11'3 8.0
2017-May-27 15:27N 36°47' E 013°15'7 8.3
2017-May-27 14:37N 36°44' E 013°23'1 8.3
2017-May-27 14:31N 36°44' E 013°24'9 8.3
2017-May-27 13:22N 36°41' E 013°35'3 8.5
2017-May-27 13:00N 36°40' E 013°39'4 8.4
2017-May-27 12:30N 36°39' E 013°44'4 8.4
2017-May-27 12:00N 36°37' E 013°49'4 8.5
2017-May-27 11:31N 36°36' E 013°54'4 8.4
2017-May-27 11:01N 36°34' E 013°59'4 8.0
2017-May-27 10:30N 36°33' E 014°03'3 6.8
2017-May-27 09:59N 36°32' E 014°07'4 8.0
2017-May-27 09:30N 36°30' E 014°12'4 8.5
2017-May-27 09:00N 36°29' E 014°17'4 8.3
2017-May-27 08:29N 36°27' E 014°22'3 6.8
2017-May-27 08:01N 36°27' E 014°26'4 8.4
2017-May-27 07:30N 36°27' E 014°31'  
2017-May-25 01:03N 37°17' E 023°53'1 9.3
2017-May-25 00:58N 37°17' E 023°54'179 8.8
2017-May-24 04:40N 39°51' E 025°52'  
2017-May-20 00:07N 46°19' E 030°55'2 8.9
2017-May-19 23:54N 46°21' E 030°55'5 9.1
2017-May-19 23:21N 46°26' E 030°55'11 7.2
2017-May-19 21:46N 46°35' E 031°06'2 8.5
2017-May-19 21:29N 46°35' E 031°09'4 8.4
2017-May-19 21:00N 46°35' E 031°15'4 8.2
2017-May-19 20:30N 46°35' E 031°21'4 7.9
2017-May-19 20:00N 46°35' E 031°27'3 7.0
2017-May-19 19:31N 46°35' E 031°32'4 8.1
2017-May-19 19:00N 46°35' E 031°37'5 8.4
2017-May-19 18:27N 46°36' E 031°44'4 8.0
2017-May-19 18:00N 46°35' E 031°49'4 8.2
2017-May-19 17:30N 46°34' E 031°55'  
Track history (hours):
 
Tides and Currents Weather Stations Pressure Air Temp Water Temp Dewpoint Dewpoint Depression Visibility Wind Speed Wind Dir Waves Ship Positions

Zeynalabdin Tagiyev

Last reported at 2017-May-28 19:53 UTC. Time now 2017-May-29 03:59 UTC.
Position N 37°16' E 008°19'.

Length 140 m; draft 4.6 m.

Type: Cargo ship. MMSI: 256107000.

Date/timePositionNaut miles runAvg speedWind from/ knotsBaromVisibWave heightAir tempDewpointWater temp
2017-May-28 19:53N 37°16' E 008°19'4 9.4
2017-May-28 19:30N 37°16' E 008°24'5 9.4
2017-May-28 19:00N 37°16' E 008°29'5 9.4
2017-May-28 18:30N 37°16' E 008°35'5 9.5
2017-May-28 18:01N 37°17' E 008°41'5 9.7
2017-May-28 17:30N 37°18' E 008°47'7 9.2
2017-May-28 16:41N 37°19' E 008°56'2 9.7
2017-May-28 16:30N 37°20' E 008°59'5 9.8
2017-May-28 16:00N 37°21' E 009°05'5 9.8
2017-May-28 15:30N 37°22' E 009°11'5 9.7
2017-May-28 14:59N 37°23' E 009°17'10 9.5
2017-May-28 13:59N 37°25' E 009°28'64 8.2
2017-May-28 06:11N 37°31' E 010°49'1 8.9
2017-May-28 06:01N 37°30' E 010°50'105 8.5
2017-May-27 17:39N 36°53' E 012°54'1 8.4
2017-May-27 17:31N 36°53' E 012°55'5 8.4
2017-May-27 16:52N 36°51' E 013°02'3 8.1
2017-May-27 16:30N 36°50' E 013°05'5 8.1
2017-May-27 15:50N 36°48' E 013°11'3 8.0
2017-May-27 15:27N 36°47' E 013°15'7 8.3
2017-May-27 14:37N 36°44' E 013°23'1 8.3
2017-May-27 14:31N 36°44' E 013°24'9 8.3
2017-May-27 13:22N 36°41' E 013°35'3 8.5
2017-May-27 13:00N 36°40' E 013°39'4 8.4
2017-May-27 12:30N 36°39' E 013°44'4 8.4
2017-May-27 12:00N 36°37' E 013°49'4 8.5
2017-May-27 11:31N 36°36' E 013°54'4 8.4
2017-May-27 11:01N 36°34' E 013°59'4 8.0
2017-May-27 10:30N 36°33' E 014°03'3 6.8
2017-May-27 09:59N 36°32' E 014°07'4 8.0
2017-May-27 09:30N 36°30' E 014°12'4 8.5
2017-May-27 09:00N 36°29' E 014°17'4 8.3
2017-May-27 08:29N 36°27' E 014°22'3 6.8
2017-May-27 08:01N 36°27' E 014°26'4 8.4
2017-May-27 07:30N 36°27' E 014°31'  
2017-May-25 01:03N 37°17' E 023°53'1 9.3
2017-May-25 00:58N 37°17' E 023°54'179 8.8
2017-May-24 04:40N 39°51' E 025°52'  
2017-May-20 00:07N 46°19' E 030°55'2 8.9
2017-May-19 23:54N 46°21' E 030°55'5 9.1
2017-May-19 23:21N 46°26' E 030°55'11 7.2
2017-May-19 21:46N 46°35' E 031°06'2 8.5
2017-May-19 21:29N 46°35' E 031°09'4 8.4
2017-May-19 21:00N 46°35' E 031°15'4 8.2
2017-May-19 20:30N 46°35' E 031°21'4 7.9
2017-May-19 20:00N 46°35' E 031°27'3 7.0
2017-May-19 19:31N 46°35' E 031°32'4 8.1
2017-May-19 19:00N 46°35' E 031°37'5 8.4
2017-May-19 18:27N 46°36' E 031°44'4 8.0
2017-May-19 18:00N 46°35' E 031°49'4 8.2
2017-May-19 17:30N 46°34' E 031°55'  

Dump ship's entire track history